createdAt,value
2022-11-24T00:00:18.732Z,2.22
2022-11-24T00:02:45.133Z,2.25
2022-11-24T00:05:11.757Z,1.98
2022-11-24T00:07:38.182Z,1.17
2022-11-24T00:10:05.091Z,1.50
2022-11-24T00:12:31.391Z,1.48
2022-11-24T00:14:57.721Z,1.75
2022-11-24T00:17:24.431Z,1.33
2022-11-24T00:19:50.772Z,1.42
2022-11-24T00:22:17.251Z,2.40
2022-11-24T00:24:43.573Z,2.20
2022-11-24T00:27:09.885Z,3.47
2022-11-24T00:29:36.183Z,2.55
2022-11-24T00:32:02.641Z,3.25
2022-11-24T00:34:28.930Z,3.78
2022-11-24T00:36:55.314Z,3.25
2022-11-24T00:39:21.678Z,2.38
2022-11-24T00:41:48.292Z,2.17
2022-11-24T00:44:14.726Z,1.77
2022-11-24T00:46:41.226Z,1.05
2022-11-24T00:49:07.861Z,1.70
2022-11-24T00:51:34.242Z,1.38
2022-11-24T00:54:01.293Z,1.35
2022-11-24T00:56:29.531Z,1.48
2022-11-24T00:58:56.193Z,1.80
2022-11-24T01:01:25.102Z,1.52
2022-11-24T01:03:51.967Z,1.50
2022-11-24T01:06:24.024Z,1.73
2022-11-24T01:08:50.638Z,2.22
2022-11-24T01:11:23.285Z,1.70
2022-11-24T01:13:53.261Z,1.20
2022-11-24T01:16:31.316Z,2.13
2022-11-24T01:18:57.795Z,2.05
2022-11-24T01:21:24.550Z,2.10
2022-11-24T01:23:50.991Z,1.67
2022-11-24T01:26:20.415Z,2.13
2022-11-24T01:28:47.926Z,2.03
2022-11-24T01:31:15.410Z,1.80
2022-11-24T01:33:42.299Z,2.22
2022-11-24T01:36:08.665Z,1.27
2022-11-24T01:38:35.119Z,2.47
2022-11-24T01:41:10.118Z,1.73
2022-11-24T01:43:36.811Z,1.60
2022-11-24T01:46:32.420Z,1.58
2022-11-24T01:49:16.352Z,2.33
2022-11-24T01:51:53.522Z,1.73
2022-11-24T01:54:29.374Z,1.75
2022-11-24T01:57:02.252Z,1.67
2022-11-24T01:59:28.841Z,1.20
2022-11-24T02:01:57.050Z,1.70
2022-11-24T02:04:27.570Z,1.45
2022-11-24T02:06:56.157Z,1.35
2022-11-24T02:09:40.203Z,1.48
2022-11-24T02:12:07.043Z,1.10
2022-11-24T02:14:37.366Z,1.40
2022-11-24T02:17:04.004Z,1.27
2022-11-24T02:19:58.586Z,1.48
2022-11-24T02:22:36.146Z,1.85
2022-11-24T02:25:29.978Z,1.85
2022-11-24T02:27:59.042Z,1.52
2022-11-24T02:30:25.435Z,1.92
2022-11-24T02:32:52.872Z,1.65
2022-11-24T02:35:20.060Z,1.67
2022-11-24T02:37:46.703Z,1.70
2022-11-24T02:40:16.145Z,1.33
2022-11-24T02:42:45.823Z,1.75
2022-11-24T02:45:15.502Z,1.20
2022-11-24T02:47:41.893Z,2.50
2022-11-24T02:50:08.537Z,2.53
2022-11-24T02:52:35.234Z,2.70
2022-11-24T02:55:01.594Z,1.98
2022-11-24T02:57:27.965Z,1.50
2022-11-24T02:59:54.528Z,1.98
2022-11-24T03:02:20.984Z,1.45
2022-11-24T03:04:47.463Z,1.50
2022-11-24T03:07:13.804Z,2.50
2022-11-24T03:09:40.403Z,2.45
2022-11-24T03:12:07.115Z,1.48
2022-11-24T03:14:33.664Z,2.15
2022-11-24T03:17:00.319Z,1.95
2022-11-24T03:19:26.833Z,2.17
2022-11-24T03:21:53.256Z,1.40
2022-11-24T03:24:19.557Z,1.52
2022-11-24T03:26:45.895Z,1.55
2022-11-24T03:29:12.286Z,1.80
2022-11-24T03:31:38.687Z,2.15
2022-11-24T03:34:05.117Z,1.98
2022-11-24T03:36:34.194Z,1.73
2022-11-24T03:39:00.862Z,2.33
2022-11-24T03:41:27.188Z,1.92
2022-11-24T03:43:53.552Z,1.50
2022-11-24T03:46:19.933Z,1.90
2022-11-24T03:48:46.304Z,1.80
2022-11-24T03:51:12.803Z,2.13
2022-11-24T03:53:39.117Z,1.85
2022-11-24T03:56:05.613Z,1.92
2022-11-24T03:58:32.229Z,2.15
2022-11-24T04:00:58.708Z,2.53
2022-11-24T04:03:25.373Z,1.35
2022-11-24T04:05:51.753Z,1.67
2022-11-24T04:08:18.479Z,1.65
2022-11-24T04:10:45.159Z,2.22
2022-11-24T04:13:16.418Z,1.65
2022-11-24T04:15:43.635Z,1.80
2022-11-24T04:18:11.731Z,1.85
2022-11-24T04:20:39.314Z,2.05
2022-11-24T04:23:06.159Z,1.83
2022-11-24T04:25:32.555Z,2.53
2022-11-24T04:27:58.990Z,1.92
2022-11-24T04:30:27.371Z,2.70
2022-11-24T04:32:54.246Z,2.15
2022-11-24T04:35:21.126Z,1.85
2022-11-24T04:37:47.704Z,1.67
2022-11-24T04:40:14.823Z,2.50
2022-11-24T04:42:41.201Z,2.30
2022-11-24T04:45:07.953Z,2.17
2022-11-24T04:47:34.455Z,1.60
2022-11-24T04:50:00.754Z,2.42
2022-11-24T04:52:27.227Z,2.33
2022-11-24T04:54:53.590Z,1.75
2022-11-24T04:57:22.083Z,1.50
2022-11-24T04:59:49.781Z,1.58
2022-11-24T05:02:16.313Z,1.42
2022-11-24T05:04:43.103Z,1.67
2022-11-24T05:07:18.419Z,2.03
2022-11-24T05:09:58.917Z,1.30
2022-11-24T05:12:27.703Z,1.75
2022-11-24T05:14:54.064Z,1.52
2022-11-24T05:17:20.475Z,1.48
2022-11-24T05:19:46.744Z,2.15
2022-11-24T05:22:13.081Z,1.75
2022-11-24T05:24:39.695Z,1.88
2022-11-24T05:27:06.404Z,2.05
2022-11-24T05:29:33.005Z,1.58
2022-11-24T05:31:59.349Z,1.67
2022-11-24T05:34:26.304Z,2.22
2022-11-24T05:36:52.669Z,1.48
2022-11-24T05:39:19.872Z,1.27
2022-11-24T05:41:46.583Z,1.70
2022-11-24T05:44:13.130Z,1.77
2022-11-24T05:46:39.625Z,1.92
2022-11-24T05:49:05.953Z,1.63
2022-11-24T05:51:32.285Z,1.92
2022-11-24T05:53:58.697Z,1.73
2022-11-24T05:56:25.085Z,1.55
2022-11-24T05:58:51.431Z,1.38
2022-11-24T06:01:18.045Z,2.03
2022-11-24T06:03:44.516Z,1.90
2022-11-24T06:06:11.016Z,2.08
2022-11-24T06:08:37.364Z,1.38
2022-11-24T06:11:04.059Z,1.42
2022-11-24T06:13:30.415Z,1.42
2022-11-24T06:15:59.444Z,1.60
2022-11-24T06:18:25.864Z,1.75
2022-11-24T06:21:09.915Z,1.17
2022-11-24T06:23:39.054Z,2.17
2022-11-24T06:26:06.405Z,1.55
2022-11-24T06:28:32.989Z,1.10
2022-11-24T06:31:03.933Z,1.63
2022-11-24T06:33:34.723Z,2.05
2022-11-24T06:36:03.398Z,2.03
2022-11-24T06:38:30.274Z,2.03
2022-11-24T06:41:27.022Z,2.03
2022-11-24T06:43:53.732Z,1.83
2022-11-24T06:46:20.669Z,1.20
2022-11-24T06:48:47.346Z,1.63
2022-11-24T06:51:13.889Z,1.23
2022-11-24T06:53:41.435Z,1.60
2022-11-24T06:56:16.389Z,1.95
2022-11-24T07:01:20.186Z,1.20
2022-11-24T07:03:48.294Z,1.58
2022-11-24T07:06:15.834Z,1.80
2022-11-24T07:08:42.195Z,1.13
2022-11-24T07:11:11.457Z,1.60
2022-11-24T07:13:38.728Z,1.70
2022-11-24T07:16:20.534Z,1.27
2022-11-24T07:18:48.533Z,1.48
2022-11-24T07:21:15.502Z,1.00
2022-11-24T07:23:42.255Z,1.58
2022-11-24T07:26:10.047Z,2.22
2022-11-24T07:28:37.090Z,1.95
2022-11-24T07:31:11.391Z,2.25
2022-11-24T07:33:38.120Z,2.25
2022-11-24T07:36:07.137Z,1.52
2022-11-24T07:38:33.686Z,2.38
2022-11-24T07:41:05.427Z,2.17
2022-11-24T07:43:36.962Z,2.55
2022-11-24T07:46:05.086Z,2.28
2022-11-24T07:48:31.649Z,1.85
2022-11-24T07:51:02.324Z,1.27
2022-11-24T07:53:28.654Z,1.42
2022-11-24T07:55:56.961Z,2.45
2022-11-24T07:58:24.737Z,1.75
2022-11-24T08:00:53.277Z,1.83
2022-11-24T08:03:23.192Z,3.08
2022-11-24T08:08:47.215Z,1.88
2022-11-24T08:11:18.263Z,2.38
2022-11-24T08:13:45.061Z,1.60
2022-11-24T08:16:13.698Z,1.40
2022-11-24T08:18:41.077Z,2.38
2022-11-24T08:21:11.936Z,1.88
2022-11-24T08:23:38.925Z,1.95
2022-11-24T08:26:12.009Z,1.63
2022-11-24T08:28:38.456Z,1.67
2022-11-24T08:31:08.429Z,2.40
2022-11-24T08:33:35.685Z,2.05
2022-11-24T08:36:07.741Z,1.60
2022-11-24T08:38:34.591Z,1.80
2022-11-24T08:41:03.895Z,2.15
2022-11-24T08:43:31.214Z,2.35
2022-11-24T08:46:06.619Z,2.15
2022-11-24T08:51:10.054Z,2.45
2022-11-24T08:53:36.516Z,2.85
2022-11-24T08:56:08.626Z,2.92
2022-11-24T08:58:36.229Z,1.58
2022-11-24T09:01:16.686Z,2.08
2022-11-24T09:03:49.932Z,2.13
2022-11-24T09:06:25.617Z,1.90
2022-11-24T09:08:55.305Z,2.65
2022-11-24T09:11:22.397Z,2.42
2022-11-24T09:13:49.139Z,1.73
2022-11-24T09:16:18.588Z,1.67
2022-11-24T09:18:45.801Z,1.83
2022-11-24T09:21:21.223Z,2.25
2022-11-24T09:26:27.330Z,1.30
2022-11-24T09:28:55.409Z,1.38
2022-11-24T09:31:27.628Z,1.73
2022-11-24T09:33:54.861Z,2.33
2022-11-24T09:36:22.233Z,1.60
2022-11-24T09:38:48.584Z,2.25
2022-11-24T09:41:14.928Z,1.83
2022-11-24T09:43:50.173Z,1.85
2022-11-24T09:46:40.337Z,2.03
2022-11-24T09:49:15.319Z,1.83
2022-11-24T09:51:48.283Z,1.95
2022-11-24T09:54:22.915Z,1.75
2022-11-24T09:56:49.869Z,1.98
2022-11-24T09:59:19.947Z,1.45
2022-11-24T10:01:48.386Z,1.23
2022-11-24T10:04:25.394Z,1.67
2022-11-24T10:07:22.900Z,1.98
2022-11-24T10:10:13.751Z,1.90
2022-11-24T10:13:05.122Z,1.52
2022-11-24T10:15:46.483Z,1.25
2022-11-24T10:18:22.497Z,2.03
2022-11-24T10:21:01.154Z,1.98
2022-11-24T10:23:44.063Z,1.65
2022-11-24T10:26:31.354Z,1.65
2022-11-24T10:28:57.739Z,1.88
2022-11-24T10:31:38.189Z,1.60
2022-11-24T10:34:33.580Z,1.95
2022-11-24T10:37:12.223Z,1.23
2022-11-24T10:39:58.559Z,1.75
2022-11-24T10:42:32.249Z,1.25
2022-11-24T10:45:10.954Z,1.85
2022-11-24T10:47:38.254Z,1.33
2022-11-24T10:50:18.876Z,1.42
2022-11-24T10:52:51.178Z,1.50
2022-11-24T10:55:17.724Z,1.50
2022-11-24T10:57:44.196Z,1.42
2022-11-24T11:00:19.807Z,1.83
2022-11-24T11:02:51.664Z,1.55
2022-11-24T11:05:38.485Z,1.77
2022-11-24T11:08:13.829Z,1.23
2022-11-24T11:10:42.327Z,1.27
2022-11-24T11:13:23.313Z,1.55
2022-11-24T11:15:50.174Z,1.23
2022-11-24T11:18:18.539Z,1.70
2022-11-24T11:20:57.005Z,1.08
2022-11-24T11:23:30.192Z,1.85
2022-11-24T11:26:18.927Z,1.52
2022-11-24T11:35:02.985Z,1.02
2022-11-24T11:37:32.737Z,1.00
2022-11-24T11:40:00.372Z,1.40
2022-11-24T11:43:00.905Z,1.30
2022-11-24T11:45:31.611Z,1.35
2022-11-24T11:48:05.613Z,1.13
2022-11-24T11:51:14.870Z,1.05
2022-11-24T11:53:37.168Z,0.88
2022-11-24T11:56:21.016Z,1.90
2022-11-24T11:58:47.285Z,0.70
2022-11-24T12:01:44.372Z,0.60
2022-11-24T12:04:31.995Z,1.05
2022-11-24T12:07:37.687Z,1.27
2022-11-24T12:10:24.256Z,1.17
2022-11-24T12:13:09.267Z,0.73
2022-11-24T12:15:57.700Z,0.63
2022-11-24T12:18:57.765Z,0.47
2022-11-24T12:22:03.352Z,0.50
2022-11-24T12:24:35.699Z,0.70
2022-11-24T12:27:20.942Z,0.70
2022-11-24T12:30:02.542Z,0.85
2022-11-24T12:32:56.005Z,0.70
2022-11-24T12:35:25.576Z,0.63
2022-11-24T12:38:09.185Z,0.30
2022-11-24T12:41:01.963Z,0.20
2022-11-24T12:43:40.416Z,0.35
2022-11-24T12:46:20.437Z,0.52
2022-11-24T12:49:15.447Z,0.60
2022-11-24T12:51:46.592Z,0.75
2022-11-24T12:54:15.781Z,0.40
2022-11-24T12:56:58.834Z,0.77
2022-11-24T12:59:31.171Z,0.50
2022-11-24T13:02:28.835Z,0.70
2022-11-24T13:05:13.044Z,0.30
2022-11-24T13:07:45.216Z,0.43
2022-11-24T13:10:46.547Z,0.70
2022-11-24T13:13:12.295Z,0.57
2022-11-24T13:18:52.962Z,0.75
2022-11-24T13:21:47.747Z,0.47
2022-11-24T13:24:17.651Z,1.15
2022-11-24T13:26:47.646Z,0.63
2022-11-24T13:29:28.944Z,0.57
2022-11-24T13:32:15.847Z,0.77
2022-11-24T13:34:42.112Z,0.55
2022-11-24T13:37:31.962Z,0.63
2022-11-24T13:40:01.885Z,0.93
2022-11-24T13:42:42.268Z,0.70
2022-11-24T13:45:39.328Z,0.73
2022-11-24T13:48:21.854Z,0.70
2022-11-24T13:50:52.036Z,0.75
2022-11-24T13:53:40.686Z,0.88
2022-11-24T13:56:23.766Z,0.75
2022-11-24T13:58:59.918Z,0.60
2022-11-24T14:01:28.862Z,1.10
2022-11-24T14:04:33.125Z,1.05
2022-11-24T14:07:09.031Z,0.63
2022-11-24T14:09:47.544Z,0.38
2022-11-24T14:12:15.903Z,0.85
2022-11-24T14:14:43.416Z,0.52
2022-11-24T14:17:28.798Z,0.30
2022-11-24T14:19:57.013Z,0.75
2022-11-24T14:22:31.405Z,0.50
2022-11-24T14:24:59.788Z,0.85
2022-11-24T14:27:37.659Z,0.82
2022-11-24T14:30:20.065Z,1.15
2022-11-24T14:33:02.477Z,0.40
2022-11-24T14:35:31.966Z,0.50
2022-11-24T14:38:00.996Z,0.52
2022-11-24T14:40:46.484Z,0.63
2022-11-24T14:43:30.942Z,0.82
2022-11-24T14:46:09.388Z,0.80
2022-11-24T14:48:37.898Z,1.00
2022-11-24T14:51:08.674Z,0.65
2022-11-24T14:53:35.599Z,0.98
2022-11-24T14:56:24.150Z,1.05
2022-11-24T14:58:50.638Z,0.63
2022-11-24T15:01:22.195Z,0.60
2022-11-24T15:04:17.878Z,0.80
2022-11-24T15:07:24.288Z,1.15
2022-11-24T15:09:53.822Z,0.47
2022-11-24T15:12:28.253Z,0.90
2022-11-24T15:15:14.916Z,0.52
2022-11-24T15:17:49.302Z,0.93
2022-11-24T15:20:45.682Z,1.10
2022-11-24T15:25:45.075Z,1.02
2022-11-24T15:28:11.631Z,0.85
2022-11-24T15:30:38.609Z,1.15
2022-11-24T15:33:14.115Z,1.23
2022-11-24T15:38:06.852Z,0.50
2022-11-24T15:40:33.418Z,0.70
2022-11-24T15:43:05.037Z,0.65
2022-11-24T15:45:34.309Z,1.08
2022-11-24T15:48:00.695Z,0.68
2022-11-24T15:50:27.017Z,0.88
2022-11-24T15:52:53.705Z,1.10
2022-11-24T15:55:21.964Z,1.10
2022-11-24T15:57:48.700Z,0.90
2022-11-24T16:00:17.046Z,1.30
2022-11-24T16:02:43.453Z,1.15
2022-11-24T16:05:11.531Z,1.35
2022-11-24T16:07:38.301Z,1.10
2022-11-24T16:10:07.316Z,1.08
2022-11-24T16:12:33.631Z,1.38
2022-11-24T16:14:59.927Z,0.80
2022-11-24T16:17:26.788Z,0.63
2022-11-24T16:20:00.213Z,1.02
2022-11-24T16:22:27.258Z,1.42
2022-11-24T16:24:53.589Z,1.50
2022-11-24T16:27:19.880Z,1.70
2022-11-24T16:29:46.386Z,1.05
2022-11-24T16:32:12.754Z,1.35
2022-11-24T16:34:39.594Z,1.02
2022-11-24T16:37:05.922Z,1.38
2022-11-24T16:39:32.299Z,1.17
2022-11-24T16:41:58.631Z,1.48
2022-11-24T16:44:25.008Z,1.27
2022-11-24T16:46:51.380Z,1.13
2022-11-24T16:49:17.873Z,1.10
2022-11-24T16:51:44.296Z,1.13
2022-11-24T16:54:10.602Z,1.80
2022-11-24T16:56:37.173Z,1.27
2022-11-24T16:59:03.633Z,1.33
2022-11-24T17:01:30.160Z,1.17
2022-11-24T17:03:56.540Z,1.10
2022-11-24T17:06:23.108Z,1.25
2022-11-24T17:08:49.503Z,1.60
2022-11-24T17:11:18.606Z,1.02
2022-11-24T17:13:45.948Z,1.52
2022-11-24T17:16:17.741Z,1.35
2022-11-24T17:18:44.815Z,1.50
2022-11-24T17:21:17.274Z,1.20
2022-11-24T17:23:44.363Z,1.80
2022-11-24T17:26:13.418Z,1.60
2022-11-24T17:28:40.264Z,1.73
2022-11-24T17:31:30.656Z,1.55
2022-11-24T17:33:58.203Z,1.48
2022-11-24T17:36:25.554Z,1.58
2022-11-24T17:38:52.645Z,1.80
2022-11-24T17:41:20.233Z,1.67
2022-11-24T17:43:54.882Z,1.48
2022-11-24T17:46:21.643Z,1.70
2022-11-24T17:48:48.026Z,1.63
2022-11-24T17:51:19.633Z,1.73
2022-11-24T17:53:48.250Z,2.17
2022-11-24T17:56:20.013Z,1.50
2022-11-24T17:58:46.680Z,1.65
2022-11-24T18:01:13.937Z,2.15
2022-11-24T18:03:41.286Z,1.40
2022-11-24T18:06:12.920Z,1.48
2022-11-24T18:08:44.667Z,1.63
2022-11-24T18:11:13.727Z,2.28
2022-11-24T18:13:56.691Z,1.98
2022-11-24T18:16:26.593Z,2.13
2022-11-24T18:19:07.967Z,2.20
2022-11-24T18:21:35.137Z,2.25
2022-11-24T18:24:01.762Z,2.53
2022-11-24T18:26:28.099Z,2.00
2022-11-24T18:28:54.514Z,3.50
2022-11-24T18:31:20.895Z,3.22
2022-11-24T18:33:47.431Z,3.63
2022-11-24T18:36:17.375Z,3.05
2022-11-24T18:38:43.779Z,1.83
2022-11-24T18:41:11.802Z,2.40
2022-11-24T18:43:38.191Z,2.35
2022-11-24T18:46:12.023Z,3.28
2022-11-24T18:48:38.711Z,3.45
2022-11-24T18:51:05.331Z,2.95
2022-11-24T18:53:31.707Z,2.72
2022-11-24T18:55:59.034Z,3.28
2022-11-24T18:58:26.498Z,3.90
2022-11-24T19:00:54.480Z,3.10
2022-11-24T19:03:20.922Z,3.67
2022-11-24T19:05:47.334Z,2.72
2022-11-24T19:08:13.766Z,2.88
2022-11-24T19:10:40.334Z,3.80
2022-11-24T19:13:06.888Z,3.25
2022-11-24T19:15:34.773Z,2.97
2022-11-24T19:18:02.142Z,3.67
2022-11-24T19:20:28.836Z,2.60
2022-11-24T19:22:55.297Z,2.40
2022-11-24T19:25:21.725Z,3.03
2022-11-24T19:27:48.125Z,3.28
2022-11-24T19:30:16.534Z,3.47
2022-11-24T19:32:43.088Z,2.38
2022-11-24T19:35:09.608Z,3.45
2022-11-24T19:37:35.996Z,2.65
2022-11-24T19:40:02.906Z,3.08
2022-11-24T19:42:29.273Z,2.63
2022-11-24T19:44:56.726Z,3.10
2022-11-24T19:47:23.319Z,3.28
2022-11-24T19:49:49.613Z,3.58
2022-11-24T19:52:16.316Z,4.28
2022-11-24T19:54:42.729Z,4.38
2022-11-24T19:57:09.041Z,4.35
2022-11-24T19:59:35.460Z,5.43
2022-11-24T20:02:01.881Z,6.35
2022-11-24T20:04:28.584Z,9.38
2022-11-24T20:06:55.117Z,14.02
2022-11-24T20:09:21.457Z,17.67
2022-11-24T20:11:48.136Z,12.05
2022-11-24T20:14:16.290Z,13.57
2022-11-24T20:16:42.710Z,10.73
2022-11-24T20:19:13.625Z,10.90
2022-11-24T20:21:41.244Z,10.75
2022-11-24T20:24:13.513Z,9.25
2022-11-24T20:26:52.443Z,7.60
2022-11-24T20:29:19.291Z,8.13
2022-11-24T20:31:49.277Z,8.10
2022-11-24T20:34:16.263Z,8.48
2022-11-24T20:36:45.078Z,6.82
2022-11-24T20:39:16.805Z,6.97
2022-11-24T20:41:43.946Z,9.55
2022-11-24T20:44:13.614Z,6.88
2022-11-24T20:46:41.486Z,15.32
2022-11-24T20:49:10.796Z,17.05
2022-11-24T20:51:38.963Z,9.55
2022-11-24T20:54:08.228Z,17.77
2022-11-24T20:56:37.935Z,8.38
2022-11-24T20:59:04.561Z,9.07
2022-11-24T21:01:34.493Z,8.82
2022-11-24T21:04:02.479Z,8.57
2022-11-24T21:06:29.269Z,4.25
2022-11-24T21:09:02.029Z,3.00
2022-11-24T21:11:30.355Z,7.45
2022-11-24T21:13:58.445Z,6.13
2022-11-24T21:16:27.664Z,5.45
2022-11-24T21:19:03.391Z,3.55
2022-11-24T21:21:32.113Z,6.68
2022-11-24T21:23:58.872Z,3.78
2022-11-24T21:26:25.589Z,2.80
2022-11-24T21:28:51.973Z,4.40
2022-11-24T21:31:21.031Z,6.20
2022-11-24T21:33:49.795Z,8.57
2022-11-24T21:36:18.975Z,5.63
2022-11-24T21:38:54.064Z,6.70
2022-11-24T21:41:21.275Z,5.32
2022-11-24T21:43:47.949Z,3.53
2022-11-24T21:46:14.703Z,4.53
2022-11-24T21:48:42.036Z,4.85
2022-11-24T21:51:12.799Z,9.90
2022-11-24T21:53:39.512Z,7.65
2022-11-24T21:56:11.650Z,7.00
2022-11-24T21:58:38.772Z,6.10
2022-11-24T22:01:07.999Z,7.88
2022-11-24T22:03:34.878Z,16.60
2022-11-24T22:06:02.019Z,13.55
2022-11-24T22:08:30.102Z,8.45
2022-11-24T22:11:23.488Z,10.63
2022-11-24T22:13:50.813Z,9.82
2022-11-24T22:16:22.799Z,7.40
2022-11-24T22:18:50.333Z,6.18
2022-11-24T22:21:19.527Z,6.22
2022-11-24T22:23:46.225Z,5.38
2022-11-24T22:26:15.899Z,10.00
2022-11-24T22:28:43.868Z,9.00
2022-11-24T22:31:15.544Z,8.05
2022-11-24T22:33:42.015Z,7.20
2022-11-24T22:36:10.053Z,5.90
2022-11-24T22:38:36.991Z,5.90
2022-11-24T22:41:12.168Z,4.93
2022-11-24T22:43:40.332Z,4.40
2022-11-24T22:46:17.788Z,5.03
2022-11-24T22:48:45.596Z,3.65
2022-11-24T22:51:23.681Z,5.05
2022-11-24T22:54:01.339Z,7.45
2022-11-24T22:56:28.377Z,6.05
2022-11-24T22:58:54.812Z,6.82
2022-11-24T23:01:24.881Z,4.88
2022-11-24T23:03:52.634Z,4.10
2022-11-24T23:06:21.799Z,6.25
2022-11-24T23:08:48.974Z,7.38
2022-11-24T23:11:18.815Z,8.85
2022-11-24T23:13:46.017Z,6.95
2022-11-24T23:16:17.839Z,12.07
2022-11-24T23:18:48.765Z,12.18
2022-11-24T23:21:20.064Z,9.45
2022-11-24T23:23:47.705Z,7.57
2022-11-24T23:26:17.124Z,6.30
2022-11-24T23:28:43.954Z,4.38
2022-11-24T23:31:13.394Z,5.90
2022-11-24T23:33:40.417Z,5.47
2022-11-24T23:36:10.402Z,4.80
2022-11-24T23:38:37.379Z,4.68
2022-11-24T23:41:06.838Z,5.20
2022-11-24T23:43:34.507Z,3.80
2022-11-24T23:46:12.986Z,4.22
2022-11-24T23:48:40.689Z,4.57
2022-11-24T23:51:17.005Z,4.65
2022-11-24T23:53:44.124Z,4.10
2022-11-24T23:56:12.477Z,4.80
2022-11-24T23:58:39.210Z,5.88
